Time;durP1;ratioP1;P1;durP2;ratioP2;P2;SDS_P1;SDS_P2;PMS_P1;PMS_P2;Temp;Humidity;BMP_temperature;BMP_pressure;BME280_temperature;BME280_humidity;BME280_pressure;Samples;Min_cycle;Max_cycle;Signal;HPM_P1;HPM_P2
2021/01/04 00:00:09;;;;;;;2.90;2.70;;;5.70;99.90;;;;;;5018422;28;20199;-83
2021/01/04 00:02:49;;;;;;;2.53;2.35;;;5.70;99.90;;;;;;5079678;28;20193;-83
2021/01/04 00:05:30;;;;;;;2.42;2.22;;;5.60;99.90;;;;;;5077974;28;20197;-81
2021/01/04 00:08:27;;;;;;;2.47;2.22;;;5.60;99.90;;;;;;5084390;28;20209;-81
2021/01/04 00:11:42;;;;;;;4.10;2.42;;;5.50;99.90;;;;;;5081969;28;20250;-82
2021/01/04 00:14:21;;;;;;;2.67;2.47;;;5.50;99.90;;;;;;5077171;28;20714;-82
2021/01/04 00:16:56;;;;;;;2.90;2.60;;;5.50;99.90;;;;;;5074831;28;20200;-81
2021/01/04 00:19:30;;;;;;;3.00;2.80;;;5.60;99.90;;;;;;5078691;28;20197;-77
2021/01/04 00:22:03;;;;;;;3.10;2.40;;;5.60;99.90;;;;;;5078363;28;20533;-80
2021/01/04 00:24:42;;;;;;;2.58;2.38;;;5.60;99.90;;;;;;5088417;28;20263;-81
2021/01/04 00:27:16;;;;;;;2.90;2.70;;;5.60;99.90;;;;;;5075231;28;20267;-84
2021/01/04 00:29:43;;;;;;;3.28;3.00;;;5.50;99.90;;;;;;5084332;28;20189;-80
2021/01/04 00:32:22;;;;;;;2.90;2.70;;;5.60;99.90;;;;;;5082134;28;20190;-80
2021/01/04 00:34:52;;;;;;;3.20;2.90;;;5.60;99.90;;;;;;5083539;28;20459;-81
2021/01/04 00:37:53;;;;;;;2.58;2.38;;;5.60;99.90;;;;;;5088240;28;20236;-80
2021/01/04 00:40:32;;;;;;;3.10;2.90;;;5.60;99.90;;;;;;5087435;28;20206;-80
2021/01/04 00:42:59;;;;;;;4.25;2.97;;;5.60;99.90;;;;;;5078438;28;20202;-79
2021/01/04 00:45:31;;;;;;;3.17;2.88;;;5.60;99.90;;;;;;5086664;28;20197;-81
2021/01/04 00:48:07;;;;;;;4.13;3.75;;;5.50;99.90;;;;;;5090273;28;20849;-80
2021/01/04 00:50:48;;;;;;;3.47;3.17;;;5.50;99.90;;;;;;5084807;28;20197;-80
2021/01/04 00:53:21;;;;;;;3.55;3.25;;;5.40;99.90;;;;;;5088958;28;20205;-84
2021/01/04 00:56:06;;;;;;;3.28;2.85;;;5.40;99.90;;;;;;5087177;28;20212;-83
2021/01/04 00:59:04;;;;;;;3.50;3.20;;;5.50;99.90;;;;;;5080620;28;20276;-84
2021/01/04 01:01:46;;;;;;;3.00;2.80;;;5.50;99.90;;;;;;5086496;28;20198;-83
2021/01/04 01:04:28;;;;;;;3.55;3.25;;;5.50;99.90;;;;;;5086429;28;20190;-82
2021/01/04 01:07:02;;;;;;;2.97;2.72;;;5.50;99.90;;;;;;5088034;28;20186;-82
2021/01/04 01:09:31;;;;;;;3.47;3.17;;;5.50;99.90;;;;;;5086338;28;20204;-82
2021/01/04 01:12:22;;;;;;;3.35;3.05;;;5.50;99.90;;;;;;5094032;28;20193;-81
2021/01/04 01:15:11;;;;;;;4.45;3.50;;;5.50;99.90;;;;;;5088277;28;20201;-81
2021/01/04 01:18:12;;;;;;;4.57;4.07;;;5.60;99.90;;;;;;5088135;28;20206;-80
2021/01/04 01:20:41;;;;;;;3.45;3.15;;;5.50;99.90;;;;;;5091471;28;20200;-80
2021/01/04 01:23:10;;;;;;;3.65;3.35;;;5.50;99.90;;;;;;5090615;28;20251;-80
2021/01/04 01:25:43;;;;;;;3.90;3.58;;;5.40;99.90;;;;;;5089032;28;20205;-80
2021/01/04 01:28:53;;;;;;;4.10;3.55;;;5.40;99.90;;;;;;5083270;28;20197;-79
2021/01/04 01:32:05;;;;;;;4.00;3.40;;;5.50;99.90;;;;;;5053048;28;20205;-80
2021/01/04 01:34:59;;;;;;;3.00;2.80;;;5.40;99.90;;;;;;5086330;28;20213;-80
2021/01/04 01:37:59;;;;;;;3.15;2.80;;;5.40;99.90;;;;;;5088323;28;20266;-81
2021/01/04 01:41:05;;;;;;;3.50;3.20;;;5.50;99.90;;;;;;5088142;28;20213;-81
2021/01/04 01:43:51;;;;;;;3.35;3.05;;;5.40;99.90;;;;;;5087865;28;20190;-80
2021/01/04 01:46:25;;;;;;;3.95;3.65;;;5.40;99.90;;;;;;5085924;28;20799;-80
2021/01/04 01:49:04;;;;;;;3.95;3.65;;;5.30;99.90;;;;;;5086641;28;20194;-81
2021/01/04 01:52:06;;;;;;;5.45;3.35;;;5.40;99.90;;;;;;5090543;28;20193;-80
2021/01/04 01:54:47;;;;;;;4.63;4.22;;;5.30;99.90;;;;;;5078679;28;20221;-80
2021/01/04 01:57:28;;;;;;;3.78;3.47;;;5.30;99.90;;;;;;5087445;28;20193;-81
2021/01/04 02:00:10;;;;;;;4.70;4.00;;;5.40;99.90;;;;;;5090884;28;20193;-80
2021/01/04 02:02:42;;;;;;;3.17;2.97;;;5.30;99.90;;;;;;5088248;28;20207;-80
2021/01/04 02:05:15;;;;;;;3.40;3.10;;;5.40;99.90;;;;;;5088343;28;20213;-83
2021/01/04 02:07:47;;;;;;;3.83;3.40;;;5.40;99.90;;;;;;5092258;28;20190;-80
2021/01/04 02:10:16;;;;;;;5.30;4.05;;;5.40;99.90;;;;;;5090045;28;20200;-81
2021/01/04 02:12:52;;;;;;;3.50;3.15;;;5.40;99.90;;;;;;5086499;28;20227;-80
2021/01/04 02:15:22;;;;;;;3.70;3.40;;;5.40;99.90;;;;;;5092797;28;20181;-80
2021/01/04 02:18:04;;;;;;;4.38;3.97;;;5.40;99.90;;;;;;5092218;28;20197;-80
2021/01/04 02:21:01;;;;;;;4.47;4.07;;;5.50;99.90;;;;;;5083679;28;20261;-79
2021/01/04 02:23:41;;;;;;;4.00;3.70;;;5.40;99.90;;;;;;5088983;28;20197;-80
2021/01/04 02:26:14;;;;;;;5.03;4.07;;;5.40;99.90;;;;;;5091527;28;20193;-79
2021/01/04 02:28:50;;;;;;;4.25;3.85;;;5.40;99.90;;;;;;5086290;28;20194;-82
2021/01/04 02:31:17;;;;;;;3.70;3.40;;;5.40;99.90;;;;;;5084439;28;20197;-81
2021/01/04 02:33:43;;;;;;;3.65;3.35;;;5.40;99.90;;;;;;5088234;28;20219;-81
2021/01/04 02:36:10;;;;;;;3.10;2.90;;;5.40;99.90;;;;;;5084056;28;20275;-80
2021/01/04 02:38:42;;;;;;;2.70;2.50;;;5.50;99.90;;;;;;5083959;28;20240;-79
2021/01/04 02:41:10;;;;;;;3.60;3.40;;;5.50;99.90;;;;;;5086871;28;20190;-80
2021/01/04 02:43:36;;;;;;;3.67;3.38;;;5.40;99.90;;;;;;5085763;28;20193;-81
2021/01/04 02:46:10;;;;;;;3.70;3.35;;;5.40;99.90;;;;;;5088105;28;20189;-80
2021/01/04 02:48:45;;;;;;;4.18;2.90;;;5.40;99.90;;;;;;5093042;28;20181;-80
2021/01/04 02:51:18;;;;;;;3.85;3.30;;;5.40;99.90;;;;;;5083617;28;20195;-80
2021/01/04 02:53:58;;;;;;;4.53;4.13;;;5.40;99.90;;;;;;5082135;28;20209;-80
2021/01/04 02:56:38;;;;;;;4.53;3.72;;;5.40;99.90;;;;;;5090661;28;20686;-80
2021/01/04 02:59:28;;;;;;;3.83;3.53;;;5.40;99.90;;;;;;5081941;28;20197;-80
2021/01/04 03:02:00;;;;;;;3.80;3.50;;;5.40;99.90;;;;;;5077805;28;20270;-80
2021/01/04 03:04:28;;;;;;;2.80;2.60;;;5.30;99.90;;;;;;5081935;28;20250;-81
2021/01/04 03:06:58;;;;;;;3.60;3.30;;;5.40;99.90;;;;;;5090510;28;20499;-82
2021/01/04 03:09:27;;;;;;;4.00;3.65;;;5.30;99.90;;;;;;5086888;28;20648;-81
2021/01/04 03:11:55;;;;;;;3.20;3.00;;;5.30;99.90;;;;;;5087626;28;20196;-81
2021/01/04 03:14:33;;;;;;;3.85;3.40;;;5.40;99.90;;;;;;5086930;28;20217;-86
2021/01/04 03:17:09;;;;;;;2.90;2.25;;;5.30;99.90;;;;;;5088868;28;20188;-81
2021/01/04 03:19:39;;;;;;;3.22;2.97;;;5.40;99.90;;;;;;5089053;28;20304;-82
2021/01/04 03:22:13;;;;;;;3.70;3.40;;;5.40;99.90;;;;;;5087609;28;20537;-83
2021/01/04 03:24:44;;;;;;;3.75;3.42;;;5.30;99.90;;;;;;5080167;28;20259;-82
2021/01/04 03:27:16;;;;;;;4.00;3.63;;;5.30;99.90;;;;;;5087098;28;20190;-83
2021/01/04 03:29:42;;;;;;;4.15;3.85;;;5.40;99.90;;;;;;5087546;28;20208;-83
2021/01/04 03:32:08;;;;;;;3.58;3.28;;;5.30;99.90;;;;;;5087437;28;20193;-83
2021/01/04 03:34:35;;;;;;;5.15;4.00;;;5.30;99.90;;;;;;5086709;28;20221;-82
2021/01/04 03:37:01;;;;;;;3.95;3.65;;;5.30;99.90;;;;;;5084362;28;20708;-81
2021/01/04 03:39:28;;;;;;;3.45;2.85;;;5.30;99.90;;;;;;5081321;28;20815;-83
2021/01/04 03:41:55;;;;;;;3.20;3.00;;;5.30;99.90;;;;;;5090386;28;20529;-81
2021/01/04 03:44:23;;;;;;;4.35;3.20;;;5.30;99.90;;;;;;5089141;28;20186;-78
2021/01/04 03:46:49;;;;;;;3.42;3.17;;;5.20;99.90;;;;;;5090107;28;20197;-82
2021/01/04 03:49:15;;;;;;;4.10;3.72;;;5.30;99.90;;;;;;5085913;28;20189;-79
2021/01/04 03:51:48;;;;;;;4.07;3.38;;;5.30;99.90;;;;;;5090559;28;20205;-80
2021/01/04 03:54:15;;;;;;;3.15;2.75;;;5.30;99.90;;;;;;5084722;28;20209;-81
2021/01/04 03:56:41;;;;;;;3.63;3.33;;;5.30;99.90;;;;;;5086797;28;20193;-84
2021/01/04 03:59:07;;;;;;;3.50;3.20;;;5.20;99.90;;;;;;5083151;28;20193;-82
2021/01/04 04:01:34;;;;;;;3.67;3.38;;;5.20;99.90;;;;;;5083998;28;20262;-83
2021/01/04 04:04:01;;;;;;;3.58;3.33;;;5.20;99.90;;;;;;5090407;28;20193;-83
2021/01/04 04:06:27;;;;;;;4.35;3.83;;;5.30;99.90;;;;;;5084137;28;20194;-82
2021/01/04 04:08:53;;;;;;;3.28;3.00;;;5.20;99.90;;;;;;5081630;28;20198;-83
2021/01/04 04:11:21;;;;;;;3.50;3.20;;;5.30;99.90;;;;;;5083641;28;20198;-83
2021/01/04 04:13:47;;;;;;;4.28;3.88;;;5.30;99.90;;;;;;5087564;28;20875;-81
2021/01/04 04:16:14;;;;;;;3.58;3.28;;;5.30;99.90;;;;;;5083933;28;20202;-82
2021/01/04 04:18:41;;;;;;;3.65;3.35;;;5.30;99.90;;;;;;5083293;28;20530;-82
2021/01/04 04:21:07;;;;;;;3.70;3.40;;;5.30;99.90;;;;;;5079581;28;20570;-82
2021/01/04 04:23:33;;;;;;;3.40;3.10;;;5.30;99.90;;;;;;5078623;28;20568;-80
2021/01/04 04:26:00;;;;;;;3.95;3.65;;;5.40;99.90;;;;;;5083075;28;20310;-80
2021/01/04 04:28:26;;;;;;;4.68;3.97;;;5.30;99.90;;;;;;5082543;28;20194;-79
2021/01/04 04:30:52;;;;;;;3.55;3.17;;;5.30;99.90;;;;;;5076932;28;20202;-80
2021/01/04 04:33:18;;;;;;;4.18;3.83;;;5.30;99.90;;;;;;5089830;28;20213;-81
2021/01/04 04:35:46;;;;;;;4.10;3.75;;;5.30;99.90;;;;;;5082520;28;20194;-81
2021/01/04 04:38:12;;;;;;;3.97;3.55;;;5.20;99.90;;;;;;5081347;28;20248;-80
2021/01/04 04:40:39;;;;;;;4.13;3.70;;;5.30;99.90;;;;;;5088010;28;20679;-80
2021/01/04 04:43:11;;;;;;;3.67;3.13;;;5.30;99.90;;;;;;5089327;28;20194;-80
2021/01/04 04:45:39;;;;;;;4.03;3.63;;;5.20;99.90;;;;;;5081778;28;20765;-80
2021/01/04 04:48:22;;;;;;;3.25;3.00;;;5.20;99.90;;;;;;5087426;28;20205;-80
2021/01/04 04:51:10;;;;;;;4.00;3.60;;;5.30;99.90;;;;;;5086796;28;20541;-80
2021/01/04 04:54:02;;;;;;;3.67;3.15;;;5.30;99.90;;;;;;5085404;28;20206;-81
2021/01/04 04:56:57;;;;;;;3.90;3.50;;;5.30;99.90;;;;;;5070985;28;20292;-80
2021/01/04 04:59:36;;;;;;;3.58;3.05;;;5.30;99.90;;;;;;5084473;28;20621;-80
2021/01/04 05:02:10;;;;;;;3.72;3.22;;;5.30;99.90;;;;;;5083658;28;20766;-79
2021/01/04 05:04:54;;;;;;;3.28;3.03;;;5.30;99.90;;;;;;5089647;28;20537;-79
2021/01/04 05:07:32;;;;;;;3.90;3.60;;;5.40;99.90;;;;;;5085373;28;21106;-79
2021/01/04 05:10:00;;;;;;;3.92;3.60;;;5.30;99.90;;;;;;5090476;28;20639;-80
2021/01/04 05:12:41;;;;;;;3.72;3.42;;;5.30;99.90;;;;;;5085806;28;20198;-80
2021/01/04 05:15:28;;;;;;;3.78;3.33;;;5.30;99.90;;;;;;5080561;28;20186;-78
2021/01/04 05:18:28;;;;;;;4.40;3.65;;;5.30;99.90;;;;;;5085727;28;20189;-79
2021/01/04 05:21:41;;;;;;;4.80;3.97;;;5.20;99.90;;;;;;5045684;28;20218;-79
2021/01/04 05:24:46;;;;;;;4.05;3.75;;;5.20;99.90;;;;;;5079108;28;20192;-80
2021/01/04 05:27:29;;;;;;;3.75;3.35;;;5.20;99.90;;;;;;5083043;28;20186;-80
2021/01/04 05:30:34;;;;;;;4.55;3.60;;;5.20;99.90;;;;;;5087029;28;20197;-79
2021/01/04 05:33:36;;;;;;;4.05;3.70;;;5.20;99.90;;;;;;5043432;28;20574;-79
2021/01/04 05:36:12;;;;;;;4.10;3.72;;;5.20;99.90;;;;;;5084495;28;20201;-80
2021/01/04 05:38:46;;;;;;;4.03;3.67;;;5.20;99.90;;;;;;5080086;28;20726;-80
2021/01/04 05:41:30;;;;;;;3.50;3.20;;;5.20;99.90;;;;;;5092376;28;20226;-80
2021/01/04 05:44:10;;;;;;;4.40;4.00;;;5.30;99.90;;;;;;5088453;28;20186;-80
2021/01/04 05:46:46;;;;;;;3.45;3.15;;;5.20;99.90;;;;;;5079876;28;20197;-80
2021/01/04 05:49:29;;;;;;;3.28;2.97;;;5.20;99.90;;;;;;5083975;28;20234;-80
2021/01/04 05:51:56;;;;;;;4.85;3.38;;;5.20;99.90;;;;;;5083011;28;20194;-80
2021/01/04 05:54:28;;;;;;;3.72;3.35;;;5.30;99.90;;;;;;5082056;28;20221;-80
2021/01/04 05:57:05;;;;;;;4.03;3.70;;;5.30;99.90;;;;;;5079561;28;20209;-80
2021/01/04 05:59:31;;;;;;;4.13;3.65;;;5.20;99.90;;;;;;5081450;28;20668;-80
2021/01/04 06:02:01;;;;;;;4.70;4.30;;;5.20;99.90;;;;;;5085113;28;20507;-81
2021/01/04 06:04:28;;;;;;;3.30;3.00;;;5.20;99.90;;;;;;5079712;28;20194;-80
2021/01/04 06:06:57;;;;;;;3.67;3.38;;;5.20;99.90;;;;;;5077654;28;20202;-80
2021/01/04 06:09:24;;;;;;;4.32;3.97;;;5.20;99.90;;;;;;5085601;28;20205;-81
2021/01/04 06:11:54;;;;;;;4.10;3.70;;;5.30;99.90;;;;;;5086287;28;20189;-78
2021/01/04 06:14:22;;;;;;;4.10;3.72;;;5.20;99.90;;;;;;5088718;28;20354;-77
2021/01/04 06:16:57;;;;;;;5.07;4.68;;;5.30;99.90;;;;;;5084653;28;20426;-77
2021/01/04 06:19:24;;;;;;;4.85;4.35;;;5.20;99.90;;;;;;5083632;28;20205;-79
2021/01/04 06:21:54;;;;;;;4.57;4.18;;;5.20;99.90;;;;;;5081284;28;20533;-78
2021/01/04 06:24:39;;;;;;;4.97;4.32;;;5.20;99.90;;;;;;5081747;28;20637;-79
2021/01/04 06:27:13;;;;;;;5.00;4.50;;;5.20;99.90;;;;;;5077068;28;20205;-79
2021/01/04 06:29:42;;;;;;;3.80;3.50;;;5.10;99.90;;;;;;5079396;28;20634;-80
2021/01/04 06:32:21;;;;;;;5.00;3.97;;;5.20;99.90;;;;;;5079891;28;20638;-80
2021/01/04 06:34:52;;;;;;;3.83;3.53;;;5.20;99.90;;;;;;5084271;28;20504;-81
2021/01/04 06:37:22;;;;;;;4.30;4.00;;;5.10;99.90;;;;;;5082286;28;20225;-80
2021/01/04 06:40:00;;;;;;;4.70;4.30;;;5.10;99.90;;;;;;5079033;28;20247;-80
2021/01/04 06:42:26;;;;;;;3.78;3.47;;;5.10;99.90;;;;;;5083628;28;20209;-79
2021/01/04 06:45:17;;;;;;;4.25;3.88;;;5.10;99.90;;;;;;5084662;28;20190;-80
2021/01/04 06:47:49;;;;;;;4.85;4.10;;;5.10;99.90;;;;;;5078060;28;20194;-81
2021/01/04 06:50:23;;;;;;;5.60;5.10;;;5.10;99.90;;;;;;5084439;28;21697;-80
2021/01/04 06:53:18;;;;;;;5.10;4.60;;;5.10;99.90;;;;;;5079924;28;20201;-83
2021/01/04 06:56:19;;;;;;;3.80;3.50;;;5.10;99.90;;;;;;5062235;28;20273;-84
2021/01/04 06:59:18;;;;;;;4.25;3.85;;;5.10;99.90;;;;;;5083430;28;20212;-84
2021/01/04 07:02:16;;;;;;;4.40;4.00;;;5.10;99.90;;;;;;5081732;28;20652;-81
2021/01/04 07:05:24;;;;;;;4.80;4.35;;;5.10;99.90;;;;;;5084598;28;20647;-82
2021/01/04 07:08:07;;;;;;;4.30;4.00;;;5.10;99.90;;;;;;5079271;28;20194;-82
2021/01/04 07:10:46;;;;;;;4.88;4.47;;;5.00;99.90;;;;;;5085521;28;20189;-81
2021/01/04 07:13:50;;;;;;;5.30;4.80;;;5.00;99.90;;;;;;5088703;28;20193;-82
2021/01/04 07:16:31;;;;;;;5.18;4.70;;;5.00;99.90;;;;;;5083010;28;20186;-84
2021/01/04 07:19:10;;;;;;;4.90;4.10;;;5.00;99.90;;;;;;5089998;28;20186;-80
2021/01/04 07:21:47;;;;;;;4.38;3.97;;;5.00;99.90;;;;;;5089256;28;20197;-81
2021/01/04 07:24:32;;;;;;;4.80;4.35;;;5.00;99.90;;;;;;5086020;28;20222;-80
2021/01/04 07:27:22;;;;;;;4.22;3.90;;;5.10;99.90;;;;;;5080315;28;20209;-78
2021/01/04 07:30:02;;;;;;;5.93;5.35;;;5.10;99.90;;;;;;5079453;28;20197;-81
2021/01/04 07:32:43;;;;;;;5.05;4.55;;;5.10;99.90;;;;;;5076857;28;20198;-81
2021/01/04 07:35:15;;;;;;;6.18;5.57;;;5.10;99.90;;;;;;5081428;28;20223;-80
2021/01/04 07:37:56;;;;;;;5.38;4.85;;;5.10;99.90;;;;;;5086434;28;20221;-83
2021/01/04 07:40:36;;;;;;;6.00;4.70;;;5.00;99.90;;;;;;5091224;28;20185;-84
2021/01/04 07:43:53;;;;;;;4.65;4.25;;;5.00;99.90;;;;;;5084573;28;20200;-87
2021/01/04 07:47:07;;;;;;;5.45;4.95;;;5.10;99.90;;;;;;5087915;28;20200;-87
2021/01/04 07:49:57;;;;;;;5.00;4.35;;;5.10;99.90;;;;;;5091951;28;20201;-86
2021/01/04 07:52:57;;;;;;;5.53;4.03;;;5.10;99.90;;;;;;5090649;28;20209;-85
2021/01/04 07:55:42;;;;;;;5.57;4.60;;;5.10;99.90;;;;;;5089268;28;20200;-85
2021/01/04 07:58:57;;;;;;;4.45;4.07;;;5.10;99.90;;;;;;5092710;28;20194;-86
2021/01/04 08:01:56;;;;;;;4.18;3.78;;;5.00;99.90;;;;;;5091350;28;20204;-87
2021/01/04 08:04:42;;;;;;;5.35;4.85;;;5.10;99.90;;;;;;5091037;28;20200;-86
2021/01/04 08:07:47;;;;;;;5.97;4.22;;;5.10;99.90;;;;;;5092936;28;20189;-84
2021/01/04 08:10:51;;;;;;;4.55;4.15;;;5.10;99.90;;;;;;5093920;28;20177;-88
2021/01/04 08:13:57;;;;;;;5.55;4.85;;;5.10;99.90;;;;;;5093093;28;20256;-87
2021/01/04 08:16:26;;;;;;;5.18;4.68;;;5.10;99.90;;;;;;5093801;28;20201;-87
2021/01/04 08:18:57;;;;;;;4.93;4.47;;;5.10;99.90;;;;;;5092123;28;20204;-87
2021/01/04 08:21:36;;;;;;;5.55;4.40;;;5.10;99.90;;;;;;5096530;28;20186;-87
2021/01/04 08:24:13;;;;;;;5.60;5.10;;;5.10;99.90;;;;;;5094103;28;20193;-86
2021/01/04 08:27:03;;;;;;;7.43;5.50;;;5.10;99.90;;;;;;5092888;28;20189;-86
2021/01/04 08:29:37;;;;;;;4.95;4.55;;;5.10;99.90;;;;;;5092412;28;20261;-85
2021/01/04 08:32:17;;;;;;;5.18;4.75;;;5.10;99.90;;;;;;5090346;28;20251;-84
2021/01/04 08:34:45;;;;;;;5.53;5.03;;;5.10;99.90;;;;;;5091994;28;20216;-84
2021/01/04 08:37:14;;;;;;;4.05;3.42;;;5.10;99.90;;;;;;5095738;28;20233;-83
2021/01/04 08:39:45;;;;;;;5.15;4.40;;;5.00;99.90;;;;;;5094126;28;20189;-84
2021/01/04 08:42:33;;;;;;;5.30;4.78;;;5.10;99.90;;;;;;5091832;28;20189;-83
2021/01/04 08:45:05;;;;;;;5.82;5.22;;;5.20;99.90;;;;;;5095397;28;20182;-82
2021/01/04 08:47:35;;;;;;;5.07;4.60;;;5.10;99.90;;;;;;5089648;28;20179;-83
2021/01/04 08:50:17;;;;;;;5.63;4.78;;;5.10;99.90;;;;;;5092601;28;20197;-84
2021/01/04 08:52:48;;;;;;;5.60;5.07;;;5.10;99.90;;;;;;5090628;28;20212;-83
2021/01/04 08:55:27;;;;;;;6.00;5.05;;;5.20;99.90;;;;;;5089397;28;20210;-84
2021/01/04 08:57:54;;;;;;;6.63;5.50;;;5.10;99.90;;;;;;5090925;28;20681;-85
2021/01/04 09:00:25;;;;;;;5.35;4.85;;;5.10;99.90;;;;;;5093355;28;20197;-84
2021/01/04 09:02:54;;;;;;;6.78;4.97;;;5.10;99.90;;;;;;5091901;28;20212;-84
2021/01/04 09:05:31;;;;;;;7.32;5.55;;;5.10;99.90;;;;;;5093351;28;20201;-84
2021/01/04 09:07:59;;;;;;;5.32;4.82;;;5.10;99.90;;;;;;5087137;28;20622;-84
2021/01/04 09:10:36;;;;;;;6.47;5.60;;;5.20;99.90;;;;;;5091624;28;20198;-83
2021/01/04 09:13:26;;;;;;;5.22;4.72;;;5.10;99.90;;;;;;5091330;28;20177;-83
2021/01/04 09:15:55;;;;;;;8.77;7.30;;;5.20;99.90;;;;;;5092001;28;20192;-85
2021/01/04 09:18:33;;;;;;;8.10;6.00;;;5.20;99.90;;;;;;5094693;28;20205;-84
2021/01/04 09:21:02;;;;;;;6.00;5.38;;;5.20;99.90;;;;;;5087377;28;20726;-84
2021/01/04 09:23:35;;;;;;;6.07;5.47;;;5.20;99.90;;;;;;5092667;28;20197;-82
2021/01/04 09:26:17;;;;;;;5.57;4.97;;;5.20;99.90;;;;;;5089122;28;20209;-83
2021/01/04 09:28:46;;;;;;;5.93;5.32;;;5.20;99.90;;;;;;5092113;28;20213;-82
2021/01/04 09:31:16;;;;;;;6.85;5.97;;;5.20;99.90;;;;;;5092981;28;20190;-79
2021/01/04 09:33:48;;;;;;;6.88;5.90;;;5.30;99.90;;;;;;5088683;28;20232;-79
2021/01/04 09:36:16;;;;;;;6.78;5.53;;;5.30;99.90;;;;;;5094065;28;20189;-80
2021/01/04 09:38:43;;;;;;;6.30;5.07;;;5.40;99.90;;;;;;5090284;28;20225;-79
2021/01/04 09:41:11;;;;;;;7.63;6.82;;;5.20;99.90;;;;;;5094080;28;20198;-80
2021/01/04 09:43:40;;;;;;;5.22;4.72;;;5.20;99.90;;;;;;5090275;28;20617;-80
2021/01/04 09:46:22;;;;;;;6.18;5.05;;;5.20;99.90;;;;;;5093793;28;20200;-79
2021/01/04 09:48:56;;;;;;;5.78;5.15;;;5.20;99.90;;;;;;5094072;28;20250;-80
2021/01/04 09:51:31;;;;;;;6.07;5.30;;;5.30;99.90;;;;;;5090166;28;20481;-85
2021/01/04 09:54:01;;;;;;;5.95;5.43;;;5.20;99.90;;;;;;5089908;28;20213;-79
2021/01/04 09:56:31;;;;;;;6.25;5.13;;;5.20;99.90;;;;;;5086806;28;20627;-76
2021/01/04 09:59:03;;;;;;;7.40;6.10;;;5.20;99.90;;;;;;5091931;28;20204;-86
2021/01/04 10:01:39;;;;;;;7.35;6.65;;;5.20;99.90;;;;;;5090862;28;20702;-86
2021/01/04 10:04:05;;;;;;;5.65;5.15;;;5.20;99.90;;;;;;5094481;28;20197;-80
2021/01/04 10:06:35;;;;;;;7.35;5.68;;;5.20;99.90;;;;;;5088656;28;20201;-80
2021/01/04 10:09:06;;;;;;;6.57;5.82;;;5.20;99.90;;;;;;5088112;28;20515;-82
2021/01/04 10:11:32;;;;;;;6.50;5.90;;;5.20;99.90;;;;;;5093700;28;20254;-80
2021/01/04 10:14:06;;;;;;;6.78;5.85;;;5.20;99.90;;;;;;5093419;28;20209;-78
2021/01/04 10:16:34;;;;;;;6.13;5.45;;;5.20;99.90;;;;;;5093647;28;20211;-78
2021/01/04 10:19:09;;;;;;;7.35;6.50;;;5.20;99.90;;;;;;5092118;28;20208;-78
2021/01/04 10:21:45;;;;;;;6.25;5.65;;;5.30;99.90;;;;;;5088848;28;20204;-79
2021/01/04 10:24:17;;;;;;;7.90;6.53;;;5.30;99.90;;;;;;5090735;28;20200;-84
2021/01/04 10:26:46;;;;;;;6.72;6.07;;;5.30;99.90;;;;;;5089197;28;20626;-78
2021/01/04 10:29:16;;;;;;;7.43;6.38;;;5.30;99.90;;;;;;5093185;28;20285;-79
2021/01/04 10:31:44;;;;;;;6.93;6.15;;;5.30;99.90;;;;;;5086747;28;20189;-80
2021/01/04 10:34:12;;;;;;;8.25;5.75;;;5.40;99.90;;;;;;5091951;28;20233;-77
2021/01/04 10:36:41;;;;;;;6.60;6.00;;;5.40;99.90;;;;;;5089277;28;20231;-77
2021/01/04 10:39:16;;;;;;;8.88;7.50;;;5.50;99.90;;;;;;5085109;28;20629;-76
2021/01/04 10:41:42;;;;;;;7.40;6.38;;;5.40;99.90;;;;;;5087846;28;20197;-80
2021/01/04 10:44:12;;;;;;;6.55;5.85;;;5.40;99.90;;;;;;5092633;28;20344;-79
2021/01/04 10:46:41;;;;;;;9.55;7.00;;;5.50;99.90;;;;;;5093323;28;20193;-80
2021/01/04 10:49:10;;;;;;;7.75;6.38;;;5.50;99.90;;;;;;5083941;28;20634;-78
2021/01/04 10:51:39;;;;;;;7.13;6.13;;;5.40;99.90;;;;;;5091377;28;20297;-82
2021/01/04 10:54:13;;;;;;;7.70;6.85;;;5.40;99.90;;;;;;5089644;28;20535;-78
2021/01/04 10:56:43;;;;;;;8.05;7.22;;;5.50;99.90;;;;;;5086751;28;20205;-78
2021/01/04 10:59:28;;;;;;;9.52;7.30;;;5.50;99.90;;;;;;5089615;28;20258;-78
2021/01/04 11:01:57;;;;;;;6.75;6.05;;;5.50;99.90;;;;;;5089173;28;20188;-76
2021/01/04 11:04:25;;;;;;;7.60;6.47;;;5.40;99.90;;;;;;5090277;28;20201;-78
2021/01/04 11:07:09;;;;;;;9.05;7.15;;;5.30;99.90;;;;;;5088371;28;20193;-78
2021/01/04 11:09:37;;;;;;;5.35;4.85;;;5.40;99.90;;;;;;5089248;28;20197;-80
2021/01/04 11:12:08;;;;;;;8.02;7.07;;;5.40;99.90;;;;;;5088669;28;20666;-77
2021/01/04 11:14:34;;;;;;;7.38;6.60;;;5.40;99.90;;;;;;5091851;28;20209;-81
2021/01/04 11:17:18;;;;;;;7.68;5.60;;;5.40;99.90;;;;;;5088140;28;20198;-78
2021/01/04 11:19:46;;;;;;;7.75;6.95;;;5.40;99.90;;;;;;5091010;28;20185;-77
2021/01/04 11:22:19;;;;;;;7.78;6.72;;;5.40;99.90;;;;;;5089666;28;20189;-78
2021/01/04 11:24:45;;;;;;;7.35;6.50;;;5.40;99.90;;;;;;5082411;28;20197;-79
2021/01/04 11:27:12;;;;;;;7.45;6.63;;;5.40;99.90;;;;;;5088874;28;20202;-75
2021/01/04 11:29:39;;;;;;;9.02;7.25;;;5.50;99.90;;;;;;5086786;28;20193;-78
2021/01/04 11:32:06;;;;;;;8.05;6.68;;;5.40;99.90;;;;;;5083884;28;20205;-76
2021/01/04 11:34:32;;;;;;;9.40;6.40;;;5.40;99.90;;;;;;5092043;28;20213;-76
2021/01/04 11:36:59;;;;;;;8.57;7.68;;;5.40;99.90;;;;;;5088524;28;20222;-76
2021/01/04 11:39:26;;;;;;;7.90;7.05;;;5.40;99.90;;;;;;5087557;28;20197;-78
2021/01/04 11:41:52;;;;;;;6.88;6.03;;;5.40;99.90;;;;;;5088250;28;20658;-78
2021/01/04 11:44:18;;;;;;;8.70;6.70;;;5.40;99.90;;;;;;5089069;28;20213;-77
2021/01/04 11:46:45;;;;;;;8.30;7.05;;;5.40;99.90;;;;;;5087238;28;20626;-77
2021/01/04 11:49:11;;;;;;;6.78;6.10;;;5.50;99.90;;;;;;5091860;28;20201;-78
2021/01/04 11:51:38;;;;;;;8.88;7.63;;;5.50;99.90;;;;;;5089943;28;20238;-77
2021/01/04 11:54:06;;;;;;;8.75;7.65;;;5.60;99.90;;;;;;5084663;28;20213;-77
2021/01/04 11:56:33;;;;;;;6.95;6.20;;;5.60;99.90;;;;;;5084894;28;20186;-77
2021/01/04 11:58:59;;;;;;;8.30;6.85;;;5.50;99.90;;;;;;5089022;28;20189;-78
2021/01/04 12:01:25;;;;;;;7.63;6.85;;;5.50;99.90;;;;;;5090521;28;20190;-77
2021/01/04 12:03:52;;;;;;;6.72;5.95;;;5.50;99.90;;;;;;5088524;28;20185;-77
2021/01/04 12:06:19;;;;;;;7.45;6.75;;;5.60;99.90;;;;;;5088259;28;20546;-77
2021/01/04 12:08:45;;;;;;;8.15;6.75;;;5.50;99.90;;;;;;5087881;28;20203;-77
2021/01/04 12:11:13;;;;;;;8.73;7.53;;;5.50;99.90;;;;;;5077129;28;20209;-77
2021/01/04 12:13:39;;;;;;;5.97;5.38;;;5.40;99.90;;;;;;5074377;28;20281;-77
2021/01/04 12:16:06;;;;;;;7.25;6.60;;;5.50;99.90;;;;;;5086083;28;20200;-77
2021/01/04 12:18:32;;;;;;;6.93;6.28;;;5.40;99.90;;;;;;5073533;28;20201;-77
2021/01/04 12:20:58;;;;;;;8.05;6.53;;;5.50;99.90;;;;;;5071822;28;20202;-78
2021/01/04 12:23:25;;;;;;;6.70;6.00;;;5.50;99.90;;;;;;5072002;28;20227;-77
2021/01/04 12:25:51;;;;;;;12.30;8.02;;;5.50;99.90;;;;;;5071902;28;20755;-77
2021/01/04 12:28:18;;;;;;;9.80;8.07;;;5.50;99.90;;;;;;5076082;28;20192;-77
2021/01/04 12:30:44;;;;;;;7.72;6.72;;;5.60;99.90;;;;;;5084102;28;20198;-77
2021/01/04 12:33:11;;;;;;;7.82;6.30;;;5.50;99.90;;;;;;5071752;28;20206;-77
2021/01/04 12:35:37;;;;;;;9.70;6.95;;;5.60;99.90;;;;;;5084490;28;20685;-77
2021/01/04 12:38:04;;;;;;;7.65;6.85;;;5.60;99.90;;;;;;5076187;28;20253;-79
2021/01/04 12:40:32;;;;;;;6.10;5.55;;;5.70;99.90;;;;;;5071409;28;20198;-76
2021/01/04 12:43:00;;;;;;;6.63;6.03;;;5.60;99.90;;;;;;5071514;28;20682;-77
2021/01/04 12:45:29;;;;;;;10.02;6.68;;;5.60;99.90;;;;;;5074713;28;20195;-77
2021/01/04 12:47:55;;;;;;;6.55;5.85;;;5.70;99.90;;;;;;5073488;28;20194;-77
2021/01/04 12:50:22;;;;;;;8.77;7.65;;;5.50;99.90;;;;;;5076298;28;20263;-82
2021/01/04 12:52:49;;;;;;;6.68;6.07;;;5.50;99.90;;;;;;5079296;28;20289;-80
2021/01/04 12:55:17;;;;;;;7.25;6.55;;;5.60;99.90;;;;;;5085303;28;20604;-80
2021/01/04 12:57:44;;;;;;;6.88;6.25;;;5.50;99.90;;;;;;5086747;28;20194;-80
2021/01/04 13:00:12;;;;;;;8.35;6.40;;;5.50;99.90;;;;;;5089131;28;20714;-81
2021/01/04 13:02:39;;;;;;;5.95;5.45;;;5.50;99.90;;;;;;5081049;28;20571;-83
2021/01/04 13:05:06;;;;;;;6.82;6.13;;;5.60;99.90;;;;;;5081033;28;20206;-86
2021/01/04 13:07:32;;;;;;;5.95;5.35;;;5.60;99.90;;;;;;5089697;28;20238;-78
2021/01/04 13:09:58;;;;;;;6.00;5.43;;;5.60;99.90;;;;;;5078873;28;20198;-85
2021/01/04 13:12:25;;;;;;;5.93;5.43;;;5.50;99.90;;;;;;5086085;28;20190;-80
2021/01/04 13:14:51;;;;;;;5.82;5.03;;;5.50;99.90;;;;;;5083962;28;20267;-77
2021/01/04 13:17:17;;;;;;;5.25;4.85;;;5.60;99.90;;;;;;5091164;28;20205;-77
2021/01/04 13:19:45;;;;;;;6.82;5.43;;;5.60;99.90;;;;;;5094891;28;20583;-76
2021/01/04 13:22:11;;;;;;;6.25;5.35;;;5.60;99.90;;;;;;5084991;28;20198;-81
2021/01/04 13:24:37;;;;;;;5.55;5.05;;;5.60;99.90;;;;;;5082094;28;20201;-78
2021/01/04 13:27:04;;;;;;;5.70;5.20;;;5.60;99.90;;;;;;5077296;28;20270;-78
2021/01/04 13:29:31;;;;;;;5.85;5.38;;;5.60;99.90;;;;;;5086119;28;20197;-78
2021/01/04 13:32:02;;;;;;;5.97;5.47;;;5.60;99.90;;;;;;5074203;28;20194;-80
2021/01/04 13:34:29;;;;;;;5.82;5.13;;;5.60;99.90;;;;;;5074636;28;20209;-79
2021/01/04 13:36:57;;;;;;;6.40;5.35;;;5.70;99.90;;;;;;5075260;28;20226;-82
2021/01/04 13:39:24;;;;;;;5.15;4.65;;;5.60;99.90;;;;;;5079018;28;20187;-78